createdAt,value
2016-11-21T00:00:01.681Z,73216
2016-11-21T00:00:10.407Z,73209
2016-11-21T00:00:19.139Z,73200
2016-11-21T00:00:27.861Z,73193
2016-11-21T00:00:36.575Z,73198
2016-11-21T00:00:45.286Z,73206
2016-11-21T00:00:54.031Z,73224
2016-11-21T00:01:02.775Z,73228
2016-11-21T00:01:11.519Z,73230
2016-11-21T00:01:20.208Z,73231
2016-11-21T00:01:28.931Z,73230
2016-11-21T00:01:37.637Z,73236
2016-11-21T00:01:46.560Z,73242
2016-11-21T00:01:55.299Z,73236
2016-11-21T00:02:04.009Z,73235
2016-11-21T00:02:12.689Z,73230
2016-11-21T00:02:21.396Z,73218
2016-11-21T00:02:30.125Z,73223
2016-11-21T00:02:38.814Z,73230
2016-11-21T00:02:47.525Z,73229
2016-11-21T00:02:56.232Z,73222
2016-11-21T00:03:04.935Z,73208
2016-11-21T00:03:13.659Z,73202
2016-11-21T00:03:22.384Z,73207
2016-11-21T00:03:31.074Z,73218
2016-11-21T00:03:39.804Z,73221
2016-11-21T00:03:48.504Z,73216
2016-11-21T00:03:57.248Z,73209
2016-11-21T00:04:05.989Z,73205
2016-11-21T00:04:14.683Z,73206
2016-11-21T00:04:23.383Z,73205
2016-11-21T00:04:32.067Z,73208
2016-11-21T00:04:40.771Z,73200
2016-11-21T00:04:49.447Z,73197
2016-11-21T00:04:58.443Z,73201
2016-11-21T00:05:07.158Z,73206
2016-11-21T00:05:15.834Z,73210
2016-11-21T00:05:24.510Z,73214
2016-11-21T00:05:33.209Z,73227
2016-11-21T00:05:41.918Z,73227
2016-11-21T00:05:50.617Z,73225
2016-11-21T00:05:59.363Z,73218
2016-11-21T00:06:08.108Z,73217
2016-11-21T00:06:16.822Z,73213
2016-11-21T00:06:25.564Z,73213
2016-11-21T00:06:34.272Z,73212
2016-11-21T00:06:42.990Z,73211
2016-11-21T00:06:51.695Z,73212
2016-11-21T00:07:00.418Z,73216
2016-11-21T00:07:09.079Z,73212
2016-11-21T00:07:17.799Z,73213
2016-11-21T00:07:26.499Z,73210
2016-11-21T00:07:35.215Z,73211
2016-11-21T00:07:43.925Z,73213
2016-11-21T00:07:52.711Z,73222
2016-11-21T00:08:01.397Z,73221
2016-11-21T00:08:10.114Z,73218
2016-11-21T00:08:18.843Z,73210
2016-11-21T00:08:27.556Z,73212
2016-11-21T00:08:36.233Z,73217
2016-11-21T00:08:44.957Z,73216
2016-11-21T00:08:53.655Z,73224
2016-11-21T00:09:02.358Z,73227
2016-11-21T00:09:11.046Z,73225
2016-11-21T00:09:19.766Z,73232
2016-11-21T00:09:28.492Z,73242
2016-11-21T00:09:37.205Z,73235
2016-11-21T00:09:45.910Z,73227
2016-11-21T00:09:54.667Z,73222
2016-11-21T00:10:03.372Z,73216
2016-11-21T00:10:12.101Z,73217
2016-11-21T00:10:20.775Z,73215
2016-11-21T00:10:29.464Z,73213
2016-11-21T00:10:38.180Z,73214
2016-11-21T00:10:46.865Z,73220
2016-11-21T00:10:55.578Z,73223
2016-11-21T00:11:04.286Z,73218
2016-11-21T00:11:13.025Z,73218
2016-11-21T00:11:21.732Z,73213
2016-11-21T00:11:30.444Z,73210
2016-11-21T00:11:39.124Z,73213
2016-11-21T00:11:47.830Z,73207
2016-11-21T00:11:56.570Z,73206
2016-11-21T00:12:05.313Z,73206
2016-11-21T00:12:14.055Z,73209
2016-11-21T00:12:22.763Z,73223
2016-11-21T00:12:31.477Z,73232
2016-11-21T00:12:40.189Z,73230
2016-11-21T00:12:48.911Z,73230
2016-11-21T00:12:57.645Z,73241
2016-11-21T00:13:06.328Z,73246
2016-11-21T00:13:15.032Z,73242
2016-11-21T00:13:23.755Z,73236
2016-11-21T00:13:32.782Z,73228
2016-11-21T00:13:41.509Z,73225
2016-11-21T00:13:50.224Z,73224
2016-11-21T00:13:58.901Z,73225
2016-11-21T00:14:07.637Z,73227
2016-11-21T00:14:16.367Z,73224
2016-11-21T00:14:25.103Z,73223
2016-11-21T00:14:33.832Z,73223
2016-11-21T00:14:42.549Z,73223
2016-11-21T00:14:51.290Z,73221
2016-11-21T00:15:00.009Z,73222
2016-11-21T00:15:08.727Z,73225
2016-11-21T00:15:17.448Z,73227
2016-11-21T00:15:26.178Z,73226
2016-11-21T00:15:34.904Z,73222
2016-11-21T00:15:43.625Z,73223
2016-11-21T00:15:52.326Z,73218
2016-11-21T00:16:01.042Z,73220
2016-11-21T00:16:09.741Z,73222
2016-11-21T00:16:18.736Z,73230
2016-11-21T00:16:27.471Z,73230
2016-11-21T00:16:36.154Z,73219
2016-11-21T00:16:44.857Z,73207
2016-11-21T00:16:53.588Z,73212
2016-11-21T00:17:02.635Z,73219
2016-11-21T00:17:11.354Z,73219
2016-11-21T00:17:20.065Z,73211
2016-11-21T00:17:28.778Z,73213
2016-11-21T00:17:37.478Z,73217
2016-11-21T00:17:46.190Z,73223
2016-11-21T00:17:54.935Z,73225
2016-11-21T00:18:04.251Z,73227
2016-11-21T00:18:12.934Z,73221
2016-11-21T00:18:21.615Z,73217
2016-11-21T00:18:30.280Z,73218
2016-11-21T00:18:39.000Z,73208
2016-11-21T00:18:47.692Z,73210
2016-11-21T00:18:56.350Z,73213
2016-11-21T00:19:05.065Z,73214
2016-11-21T00:19:14.118Z,73211
2016-11-21T00:19:22.788Z,73212
2016-11-21T00:19:31.472Z,73211
2016-11-21T00:19:40.220Z,73204
2016-11-21T00:19:48.960Z,73203
2016-11-21T00:19:57.682Z,73202
2016-11-21T00:20:06.415Z,73197
2016-11-21T00:20:15.173Z,73202
2016-11-21T00:20:23.858Z,73213
2016-11-21T00:20:32.556Z,73221
2016-11-21T00:20:41.348Z,73217
2016-11-21T00:20:50.069Z,73207
2016-11-21T00:20:58.773Z,73211
2016-11-21T00:21:07.496Z,73214
2016-11-21T00:21:16.191Z,73218
2016-11-21T00:21:24.899Z,73211
2016-11-21T00:21:33.669Z,73206
2016-11-21T00:21:42.399Z,73205
2016-11-21T00:21:51.113Z,73199
2016-11-21T00:21:59.822Z,73196
2016-11-21T00:22:08.493Z,73203
2016-11-21T00:22:17.152Z,73207
2016-11-21T00:22:25.881Z,73226
2016-11-21T00:22:34.615Z,73237
2016-11-21T00:22:43.315Z,73248
2016-11-21T00:22:52.059Z,73249
2016-11-21T00:23:00.763Z,73240
2016-11-21T00:23:09.473Z,73232
2016-11-21T00:23:18.143Z,73222
2016-11-21T00:23:26.882Z,73214
2016-11-21T00:23:35.591Z,73205
2016-11-21T00:23:44.298Z,73199
2016-11-21T00:23:52.963Z,73197
2016-11-21T00:24:01.653Z,73194
2016-11-21T00:24:10.334Z,73194
2016-11-21T00:24:19.080Z,73197
2016-11-21T00:24:27.755Z,73204
2016-11-21T00:24:36.459Z,73200
2016-11-21T00:24:45.163Z,73201
2016-11-21T00:24:53.912Z,73201
2016-11-21T00:25:02.583Z,73203
2016-11-21T00:25:11.270Z,73199
2016-11-21T00:25:19.988Z,73206
2016-11-21T00:25:28.697Z,73220
2016-11-21T00:25:37.491Z,73224
2016-11-21T00:25:46.234Z,73224
2016-11-21T00:25:54.927Z,73216
2016-11-21T00:26:03.628Z,73196
2016-11-21T00:26:12.348Z,73189
2016-11-21T00:26:21.047Z,73184
2016-11-21T00:26:29.762Z,73190
2016-11-21T00:26:38.466Z,73186
2016-11-21T00:26:47.158Z,73184
2016-11-21T00:26:55.898Z,73187
2016-11-21T00:27:04.605Z,73191
2016-11-21T00:27:13.348Z,73206
2016-11-21T00:27:22.088Z,73204
2016-11-21T00:27:30.779Z,73203
2016-11-21T00:27:39.485Z,73198
2016-11-21T00:27:48.178Z,73192
2016-11-21T00:27:56.865Z,73200
2016-11-21T00:28:05.630Z,73205
2016-11-21T00:28:14.310Z,73213
2016-11-21T00:28:23.040Z,73217
2016-11-21T00:28:31.774Z,73209
2016-11-21T00:28:40.464Z,73209
2016-11-21T00:28:49.191Z,73206
2016-11-21T00:28:57.907Z,73214
2016-11-21T00:29:06.616Z,73210
2016-11-21T00:29:15.356Z,73216
2016-11-21T00:29:24.021Z,73209
2016-11-21T00:29:32.721Z,73199
2016-11-21T00:29:41.439Z,73198
2016-11-21T00:29:50.182Z,73195
2016-11-21T00:29:58.897Z,73204
2016-11-21T00:30:07.581Z,73214
2016-11-21T00:30:16.614Z,73222
2016-11-21T00:30:25.275Z,73232
2016-11-21T00:30:34.323Z,73228
2016-11-21T00:30:43.015Z,73238
2016-11-21T00:30:51.743Z,73245
2016-11-21T00:31:00.464Z,73245
2016-11-21T00:31:09.156Z,73238
2016-11-21T00:31:17.853Z,73238
2016-11-21T00:31:26.575Z,73236
2016-11-21T00:31:35.262Z,73225
2016-11-21T00:31:44.284Z,73230
2016-11-21T00:31:53.254Z,73228
2016-11-21T00:32:01.991Z,73231
2016-11-21T00:32:10.980Z,73219
2016-11-21T00:32:19.695Z,73211
2016-11-21T00:32:28.376Z,73201
2016-11-21T00:32:37.097Z,73204
2016-11-21T00:32:45.802Z,73200
2016-11-21T00:32:54.504Z,73196
2016-11-21T00:33:03.261Z,73198
2016-11-21T00:33:12.015Z,73202
2016-11-21T00:33:20.737Z,73203
2016-11-21T00:33:29.502Z,73200
2016-11-21T00:33:38.221Z,73195
2016-11-21T00:33:46.913Z,73194
2016-11-21T00:33:55.618Z,73204
2016-11-21T00:34:04.322Z,73202
2016-11-21T00:34:13.036Z,73196
2016-11-21T00:34:21.756Z,73194
2016-11-21T00:34:30.459Z,73187
2016-11-21T00:34:39.181Z,73186
2016-11-21T00:34:47.898Z,73192
2016-11-21T00:34:56.599Z,73188
2016-11-21T00:35:05.308Z,73176
2016-11-21T00:35:14.021Z,73182
2016-11-21T00:35:22.743Z,73169
2016-11-21T00:35:31.496Z,73171
2016-11-21T00:35:40.178Z,73185
2016-11-21T00:35:48.935Z,73203
2016-11-21T00:35:57.605Z,73209
2016-11-21T00:36:06.287Z,73205
2016-11-21T00:36:14.992Z,73202
2016-11-21T00:36:23.682Z,73192
2016-11-21T00:36:32.379Z,73189
2016-11-21T00:36:41.121Z,73195
2016-11-21T00:36:49.864Z,73199
2016-11-21T00:36:58.865Z,73200
2016-11-21T00:37:07.618Z,73199
2016-11-21T00:37:16.346Z,73191
2016-11-21T00:37:25.062Z,73180
2016-11-21T00:37:33.806Z,73163
2016-11-21T00:37:42.535Z,73146
2016-11-21T00:37:51.277Z,73131
2016-11-21T00:38:00.022Z,73120
2016-11-21T00:38:08.763Z,73113
2016-11-21T00:38:17.469Z,73120
2016-11-21T00:38:26.202Z,73123
2016-11-21T00:38:34.891Z,73126
2016-11-21T00:38:43.651Z,73129
2016-11-21T00:38:52.365Z,73135
2016-11-21T00:39:01.083Z,73150
2016-11-21T00:39:09.826Z,73153
2016-11-21T00:39:18.561Z,73157
2016-11-21T00:39:27.268Z,73148
2016-11-21T00:39:36.018Z,73149
2016-11-21T00:39:44.761Z,73145
2016-11-21T00:39:53.477Z,73148
2016-11-21T00:40:02.202Z,73144
2016-11-21T00:40:10.880Z,73142
2016-11-21T00:40:19.614Z,73140
2016-11-21T00:40:28.356Z,73136
2016-11-21T00:40:37.078Z,73146
2016-11-21T00:40:45.802Z,73151
2016-11-21T00:40:54.552Z,73151
2016-11-21T00:41:03.284Z,73153
2016-11-21T00:41:12.002Z,73145
2016-11-21T00:41:20.716Z,73134
2016-11-21T00:41:29.407Z,73131
2016-11-21T00:41:38.155Z,73127
2016-11-21T00:41:46.889Z,73126
2016-11-21T00:41:55.609Z,73130
2016-11-21T00:42:04.343Z,73135
2016-11-21T00:42:13.087Z,73144
2016-11-21T00:42:21.819Z,73136
2016-11-21T00:42:30.540Z,73133
2016-11-21T00:42:39.240Z,73116
2016-11-21T00:42:47.989Z,73108
2016-11-21T00:42:56.739Z,73114
2016-11-21T00:43:05.483Z,73130
2016-11-21T00:43:14.196Z,73140
2016-11-21T00:43:22.875Z,73150
2016-11-21T00:43:31.618Z,73163
2016-11-21T00:43:40.337Z,73163
2016-11-21T00:43:49.062Z,73169
2016-11-21T00:43:57.785Z,73173
2016-11-21T00:44:06.498Z,73170
2016-11-21T00:44:15.220Z,73172
2016-11-21T00:44:23.908Z,73173
2016-11-21T00:44:32.633Z,73165
2016-11-21T00:44:41.343Z,73158
2016-11-21T00:44:50.046Z,73156
2016-11-21T00:44:58.747Z,73153
2016-11-21T00:45:07.447Z,73150
2016-11-21T00:45:16.168Z,73150
2016-11-21T00:45:24.837Z,73149
2016-11-21T00:45:33.584Z,73158
2016-11-21T00:45:42.299Z,73165
2016-11-21T00:45:51.004Z,73164
2016-11-21T00:45:59.767Z,73166
2016-11-21T00:46:08.457Z,73162
2016-11-21T00:46:17.185Z,73153
2016-11-21T00:46:25.882Z,73143
2016-11-21T00:46:34.588Z,73141
2016-11-21T00:46:43.332Z,73141
2016-11-21T00:46:52.013Z,73144
2016-11-21T00:47:00.737Z,73147
2016-11-21T00:47:09.439Z,73150
2016-11-21T00:47:18.180Z,73158
2016-11-21T00:47:26.915Z,73166
2016-11-21T00:47:35.595Z,73159
2016-11-21T00:47:44.281Z,73146
2016-11-21T00:47:53.047Z,73141
2016-11-21T00:48:01.804Z,73111
2016-11-21T00:48:10.483Z,73122
2016-11-21T00:48:19.210Z,73123
2016-11-21T00:48:27.870Z,73108
2016-11-21T00:48:36.876Z,73102
2016-11-21T00:48:45.596Z,73101
2016-11-21T00:48:54.294Z,73097
2016-11-21T00:49:03.005Z,73092
2016-11-21T00:49:11.763Z,73089
2016-11-21T00:49:20.452Z,73101
2016-11-21T00:49:29.199Z,73105
2016-11-21T00:49:37.889Z,73107
2016-11-21T00:49:46.584Z,73106
2016-11-21T00:49:55.292Z,73109
2016-11-21T00:50:03.990Z,73123
2016-11-21T00:50:12.700Z,73126
2016-11-21T00:50:21.400Z,73127
2016-11-21T00:50:30.090Z,73125
2016-11-21T00:50:38.821Z,73125
2016-11-21T00:50:47.548Z,73121
2016-11-21T00:50:56.238Z,73108
2016-11-21T00:51:04.967Z,73094
2016-11-21T00:51:13.696Z,73089
2016-11-21T00:51:22.434Z,73085
2016-11-21T00:51:31.421Z,73089
2016-11-21T00:51:40.163Z,73100
2016-11-21T00:51:48.844Z,73099
2016-11-21T00:51:57.565Z,73102
2016-11-21T00:52:06.293Z,73097
2016-11-21T00:52:15.028Z,73112
2016-11-21T00:52:24.021Z,73113
2016-11-21T00:52:32.685Z,73117
2016-11-21T00:52:41.402Z,73113
2016-11-21T00:52:50.128Z,73111
2016-11-21T00:52:58.819Z,73114
2016-11-21T00:53:07.531Z,73118
2016-11-21T00:53:16.242Z,73104
2016-11-21T00:53:24.965Z,73096
2016-11-21T00:53:33.664Z,73105
2016-11-21T00:53:42.415Z,73100
2016-11-21T00:53:51.151Z,73106
2016-11-21T00:53:59.880Z,73107
2016-11-21T00:54:08.597Z,73104
2016-11-21T00:54:17.342Z,73098
2016-11-21T00:54:25.999Z,73103
2016-11-21T00:54:34.705Z,73111
2016-11-21T00:54:43.443Z,73115
2016-11-21T00:54:52.170Z,73122
2016-11-21T00:55:00.876Z,73128
2016-11-21T00:55:09.614Z,73122
2016-11-21T00:55:18.302Z,73117
2016-11-21T00:55:27.036Z,73113
2016-11-21T00:55:35.769Z,73111
2016-11-21T00:55:44.511Z,73112
2016-11-21T00:55:53.233Z,73110
2016-11-21T00:56:01.948Z,73105
2016-11-21T00:56:10.656Z,73106
2016-11-21T00:56:19.401Z,73106
2016-11-21T00:56:28.145Z,73107
2016-11-21T00:56:36.882Z,73095
2016-11-21T00:56:45.604Z,73083
2016-11-21T00:56:54.295Z,73071
2016-11-21T00:57:02.997Z,73081
2016-11-21T00:57:11.689Z,73084
2016-11-21T00:57:20.411Z,73093
2016-11-21T00:57:29.159Z,73089
2016-11-21T00:57:37.832Z,73095
2016-11-21T00:57:46.510Z,73090
2016-11-21T00:57:55.236Z,73095
2016-11-21T00:58:03.941Z,73102
2016-11-21T00:58:12.670Z,73105
2016-11-21T00:58:21.366Z,73101
2016-11-21T00:58:30.067Z,73100
2016-11-21T00:58:38.763Z,73096
2016-11-21T00:58:47.462Z,73105
2016-11-21T00:58:56.131Z,73106
2016-11-21T00:59:04.833Z,73113
2016-11-21T00:59:13.590Z,73111
2016-11-21T00:59:22.311Z,73108
2016-11-21T00:59:31.029Z,73113
2016-11-21T00:59:40.060Z,73121
2016-11-21T00:59:48.766Z,73121
2016-11-21T00:59:57.527Z,73127
2016-11-21T01:00:06.231Z,73130
2016-11-21T01:00:14.909Z,73139
2016-11-21T01:00:23.610Z,73137
2016-11-21T01:00:32.346Z,73133
2016-11-21T01:00:41.080Z,73120
2016-11-21T01:00:49.786Z,73110
2016-11-21T01:00:58.465Z,73115
2016-11-21T01:01:07.173Z,73117
2016-11-21T01:01:15.880Z,73114
2016-11-21T01:01:24.598Z,73102
2016-11-21T01:01:33.285Z,73092
2016-11-21T01:01:42.240Z,73082
2016-11-21T01:01:50.985Z,73086
2016-11-21T01:01:59.734Z,73091
2016-11-21T01:02:08.449Z,73097
2016-11-21T01:02:17.176Z,73116
2016-11-21T01:02:25.892Z,73123
2016-11-21T01:02:34.618Z,73128
2016-11-21T01:02:43.300Z,73134
2016-11-21T01:02:52.019Z,73132
2016-11-21T01:03:00.705Z,73115
2016-11-21T01:03:09.426Z,73105
2016-11-21T01:03:18.084Z,73106
2016-11-21T01:03:26.774Z,73106
2016-11-21T01:03:35.495Z,73102
2016-11-21T01:03:44.215Z,73093
2016-11-21T01:03:52.934Z,73101
2016-11-21T01:04:01.929Z,73092
2016-11-21T01:04:10.629Z,73095
2016-11-21T01:04:19.288Z,73102
2016-11-21T01:04:28.020Z,73105
2016-11-21T01:04:36.791Z,73105
2016-11-21T01:04:45.506Z,73107
2016-11-21T01:04:54.221Z,73127
2016-11-21T01:05:02.941Z,73128
2016-11-21T01:05:11.619Z,73121
2016-11-21T01:05:20.321Z,73114
2016-11-21T01:05:29.054Z,73108
2016-11-21T01:05:37.804Z,73113
2016-11-21T01:05:46.496Z,73115
2016-11-21T01:05:55.198Z,73125
2016-11-21T01:06:03.927Z,73122
2016-11-21T01:06:12.643Z,73117
2016-11-21T01:06:21.321Z,73107
2016-11-21T01:06:30.032Z,73101
2016-11-21T01:06:38.802Z,73094
2016-11-21T01:06:47.490Z,73085
2016-11-21T01:06:56.166Z,73090
2016-11-21T01:07:04.910Z,73089
2016-11-21T01:07:13.585Z,73094
2016-11-21T01:07:22.294Z,73099
2016-11-21T01:07:30.987Z,73093
2016-11-21T01:07:39.688Z,73094
2016-11-21T01:07:48.373Z,73089
2016-11-21T01:07:57.094Z,73098
2016-11-21T01:08:05.816Z,73096
2016-11-21T01:08:14.515Z,73098
2016-11-21T01:08:23.191Z,73120
2016-11-21T01:08:31.899Z,73127
2016-11-21T01:08:40.569Z,73128
2016-11-21T01:08:49.294Z,73123
2016-11-21T01:08:58.023Z,73119
2016-11-21T01:09:06.745Z,73120
2016-11-21T01:09:15.432Z,73122
2016-11-21T01:09:24.145Z,73112
2016-11-21T01:09:32.853Z,73095
2016-11-21T01:09:41.540Z,73095
2016-11-21T01:09:50.284Z,73091
2016-11-21T01:09:59.003Z,73084
2016-11-21T01:10:07.735Z,73079
2016-11-21T01:10:16.452Z,73076
2016-11-21T01:10:25.494Z,73083
2016-11-21T01:10:34.234Z,73086
2016-11-21T01:10:42.954Z,73087
2016-11-21T01:10:51.724Z,73088
2016-11-21T01:11:00.427Z,73087
2016-11-21T01:11:09.211Z,73081
2016-11-21T01:11:17.900Z,73082
2016-11-21T01:11:26.591Z,73083
2016-11-21T01:11:35.323Z,73069
2016-11-21T01:11:44.035Z,73065
2016-11-21T01:11:52.773Z,73066
2016-11-21T01:12:01.483Z,73067
2016-11-21T01:12:10.184Z,73069
2016-11-21T01:12:18.895Z,73085
2016-11-21T01:12:27.637Z,73107
2016-11-21T01:12:36.613Z,73106
2016-11-21T01:12:45.340Z,73116
2016-11-21T01:12:54.077Z,73137
2016-11-21T01:13:02.823Z,73148
2016-11-21T01:13:11.512Z,73150
2016-11-21T01:13:20.234Z,73157
2016-11-21T01:13:28.955Z,73144
2016-11-21T01:13:37.704Z,73140
2016-11-21T01:13:46.455Z,73135
2016-11-21T01:13:55.195Z,73129
2016-11-21T01:14:03.924Z,73126
2016-11-21T01:14:12.693Z,73124
2016-11-21T01:14:21.402Z,73109
2016-11-21T01:14:30.102Z,73106
2016-11-21T01:14:38.823Z,73098
2016-11-21T01:14:47.544Z,73097
2016-11-21T01:14:56.310Z,73087
2016-11-21T01:15:05.043Z,73091
2016-11-21T01:15:13.718Z,73096
2016-11-21T01:15:22.425Z,73080
2016-11-21T01:15:31.188Z,73098
2016-11-21T01:15:39.851Z,73110
2016-11-21T01:15:48.567Z,73124
2016-11-21T01:15:57.266Z,73136
2016-11-21T01:16:05.953Z,73132
2016-11-21T01:16:14.645Z,73138
2016-11-21T01:16:23.371Z,73150
2016-11-21T01:16:32.089Z,73156
2016-11-21T01:16:40.805Z,73158
2016-11-21T01:16:49.537Z,73162
2016-11-21T01:16:58.260Z,73165
2016-11-21T01:17:06.938Z,73163
2016-11-21T01:17:15.683Z,73144
2016-11-21T01:17:24.428Z,73136
2016-11-21T01:17:33.181Z,73125
2016-11-21T01:17:41.859Z,73115
2016-11-21T01:17:50.598Z,73099
2016-11-21T01:17:59.323Z,73104
2016-11-21T01:18:08.016Z,73088
2016-11-21T01:18:16.694Z,73079
2016-11-21T01:18:25.388Z,73075
2016-11-21T01:18:34.094Z,73071
2016-11-21T01:18:42.820Z,73069
2016-11-21T01:18:51.561Z,73078
2016-11-21T01:19:00.241Z,73096
2016-11-21T01:19:08.939Z,73109
2016-11-21T01:19:17.623Z,73122
2016-11-21T01:19:26.369Z,73122
2016-11-21T01:19:35.136Z,73120
2016-11-21T01:19:43.836Z,73114
2016-11-21T01:19:52.580Z,73109
2016-11-21T01:20:01.315Z,73109
2016-11-21T01:20:10.048Z,73104
2016-11-21T01:20:18.742Z,73086
2016-11-21T01:20:27.446Z,73091
2016-11-21T01:20:36.132Z,73083
2016-11-21T01:20:44.865Z,73092
2016-11-21T01:20:53.832Z,73094
2016-11-21T01:21:02.539Z,73102
2016-11-21T01:21:11.211Z,73107
2016-11-21T01:21:19.873Z,73114
2016-11-21T01:21:28.584Z,73103
2016-11-21T01:21:37.316Z,73075
2016-11-21T01:21:46.355Z,73056
2016-11-21T01:21:55.063Z,73037
2016-11-21T01:22:03.735Z,73016
2016-11-21T01:22:12.460Z,73006
2016-11-21T01:22:21.197Z,73009
2016-11-21T01:22:29.924Z,73022
2016-11-21T01:22:38.641Z,73042
2016-11-21T01:22:47.383Z,73046
2016-11-21T01:22:56.103Z,73052
2016-11-21T01:23:04.857Z,73061
2016-11-21T01:23:13.551Z,73051
2016-11-21T01:23:22.227Z,73063
2016-11-21T01:23:30.925Z,73066
2016-11-21T01:23:39.635Z,73066
2016-11-21T01:23:48.327Z,73081
2016-11-21T01:23:57.079Z,73090
2016-11-21T01:24:05.852Z,73098
2016-11-21T01:24:14.549Z,73103
2016-11-21T01:24:23.253Z,73116
2016-11-21T01:24:31.965Z,73106
2016-11-21T01:24:40.672Z,73105
2016-11-21T01:24:49.361Z,73098
2016-11-21T01:24:58.076Z,73089
2016-11-21T01:25:07.081Z,73072
2016-11-21T01:25:15.779Z,73065
2016-11-21T01:25:24.500Z,73049
2016-11-21T01:25:33.250Z,73056
2016-11-21T01:25:41.973Z,73053
2016-11-21T01:25:50.695Z,73061
2016-11-21T01:25:59.416Z,73072
2016-11-21T01:26:08.151Z,73089
2016-11-21T01:26:16.858Z,73093
2016-11-21T01:26:25.621Z,73105
2016-11-21T01:26:34.318Z,73103
2016-11-21T01:26:43.042Z,73101
2016-11-21T01:26:51.748Z,73095
2016-11-21T01:27:00.455Z,73084
2016-11-21T01:27:09.126Z,73084
2016-11-21T01:27:17.827Z,73093
2016-11-21T01:27:26.531Z,73099
2016-11-21T01:27:35.238Z,73101
2016-11-21T01:27:43.931Z,73103
2016-11-21T01:27:52.631Z,73107
2016-11-21T01:28:01.339Z,73113
2016-11-21T01:28:10.084Z,73116
2016-11-21T01:28:18.811Z,73122
2016-11-21T01:28:27.545Z,73124
2016-11-21T01:28:36.254Z,73114
2016-11-21T01:28:44.944Z,73112
2016-11-21T01:28:53.632Z,73113
2016-11-21T01:29:02.316Z,73107
2016-11-21T01:29:11.031Z,73101
2016-11-21T01:29:19.743Z,73103
2016-11-21T01:29:28.465Z,73105
2016-11-21T01:29:37.220Z,73094
2016-11-21T01:29:45.910Z,73090
2016-11-21T01:29:54.632Z,73088
2016-11-21T01:30:03.369Z,73078
2016-11-21T01:30:12.097Z,73081
2016-11-21T01:30:20.808Z,73079
2016-11-21T01:30:29.519Z,73079
2016-11-21T01:30:38.262Z,73078
2016-11-21T01:30:47.005Z,73081
2016-11-21T01:30:55.728Z,73086
2016-11-21T01:31:04.451Z,73096
2016-11-21T01:31:13.166Z,73103
2016-11-21T01:31:21.889Z,73104
2016-11-21T01:31:30.609Z,73099
2016-11-21T01:31:39.314Z,73110
2016-11-21T01:31:48.039Z,73109
2016-11-21T01:31:56.731Z,73104
2016-11-21T01:32:05.436Z,73094
2016-11-21T01:32:14.150Z,73095
2016-11-21T01:32:22.860Z,73087
2016-11-21T01:32:31.594Z,73094
2016-11-21T01:32:40.588Z,73094
2016-11-21T01:32:49.329Z,73104
2016-11-21T01:32:58.027Z,73109
2016-11-21T01:33:06.748Z,73123
2016-11-21T01:33:15.763Z,73133
2016-11-21T01:33:24.462Z,73138
2016-11-21T01:33:33.231Z,73136
2016-11-21T01:33:41.951Z,73126
2016-11-21T01:33:50.656Z,73107
2016-11-21T01:33:59.348Z,73096
2016-11-21T01:34:08.070Z,73084
2016-11-21T01:34:16.819Z,73086
2016-11-21T01:34:25.557Z,73079
2016-11-21T01:34:34.262Z,73069
2016-11-21T01:34:42.971Z,73069
2016-11-21T01:34:51.671Z,73094
2016-11-21T01:35:00.347Z,73109
2016-11-21T01:35:09.327Z,73131
2016-11-21T01:35:18.312Z,73146
2016-11-21T01:35:27.004Z,73150
2016-11-21T01:35:35.682Z,73141
2016-11-21T01:35:44.337Z,73126
2016-11-21T01:35:53.023Z,73115
2016-11-21T01:36:01.745Z,73108
2016-11-21T01:36:10.457Z,73101
2016-11-21T01:36:19.165Z,73091
2016-11-21T01:36:27.851Z,73100
2016-11-21T01:36:36.593Z,73110
2016-11-21T01:36:45.333Z,73117
2016-11-21T01:36:54.051Z,73130
2016-11-21T01:37:02.770Z,73116
2016-11-21T01:37:11.494Z,73113
2016-11-21T01:37:20.237Z,73127
2016-11-21T01:37:28.951Z,73129
2016-11-21T01:37:37.648Z,73125
2016-11-21T01:37:46.370Z,73123
2016-11-21T01:37:55.076Z,73120
2016-11-21T01:38:03.736Z,73121
2016-11-21T01:38:12.455Z,73119
2016-11-21T01:38:21.148Z,73124
2016-11-21T01:38:29.806Z,73122
2016-11-21T01:38:38.507Z,73121
2016-11-21T01:38:47.211Z,73119
2016-11-21T01:38:55.891Z,73116
2016-11-21T01:39:04.640Z,73111
2016-11-21T01:39:13.366Z,73102
2016-11-21T01:39:22.043Z,73093
2016-11-21T01:39:30.768Z,73080
2016-11-21T01:39:39.532Z,73070
2016-11-21T01:39:48.271Z,73063
2016-11-21T01:39:57.018Z,73054
2016-11-21T01:40:05.755Z,73023
2016-11-21T01:40:14.460Z,73030
2016-11-21T01:40:23.223Z,73034
2016-11-21T01:40:31.953Z,73046
2016-11-21T01:40:40.679Z,73042
2016-11-21T01:40:49.379Z,73040
2016-11-21T01:40:58.038Z,73046
2016-11-21T01:41:06.748Z,73044
2016-11-21T01:41:15.459Z,73062
2016-11-21T01:41:24.129Z,73090
2016-11-21T01:41:32.840Z,73107
2016-11-21T01:41:41.547Z,73130
2016-11-21T01:41:50.284Z,73118
2016-11-21T01:41:58.981Z,73101
2016-11-21T01:42:07.666Z,73096
2016-11-21T01:42:16.403Z,73087
2016-11-21T01:42:25.088Z,73091
2016-11-21T01:42:33.825Z,73097
2016-11-21T01:42:42.532Z,73084
2016-11-21T01:42:51.293Z,73084
2016-11-21T01:42:59.995Z,73058
2016-11-21T01:43:08.719Z,73058
2016-11-21T01:43:17.465Z,73086
2016-11-21T01:43:26.177Z,73062
2016-11-21T01:43:34.853Z,73064
2016-11-21T01:43:43.579Z,73077
2016-11-21T01:43:52.277Z,73102
2016-11-21T01:44:01.002Z,73112
2016-11-21T01:44:09.765Z,73105
2016-11-21T01:44:18.440Z,73106
2016-11-21T01:44:27.187Z,73099
2016-11-21T01:44:35.879Z,73094
2016-11-21T01:44:44.581Z,73093
2016-11-21T01:44:53.287Z,73097
2016-11-21T01:45:02.319Z,73113
2016-11-21T01:45:11.041Z,73118
2016-11-21T01:45:19.741Z,73124
2016-11-21T01:45:28.480Z,73122
2016-11-21T01:45:37.183Z,73116
2016-11-21T01:45:45.851Z,73102
2016-11-21T01:45:54.560Z,73091
2016-11-21T01:46:03.293Z,73093
2016-11-21T01:46:12.021Z,73090
2016-11-21T01:46:20.730Z,73087
2016-11-21T01:46:29.401Z,73079
2016-11-21T01:46:38.078Z,73077
2016-11-21T01:46:46.785Z,73076
2016-11-21T01:46:55.453Z,73077
2016-11-21T01:47:04.177Z,73075
2016-11-21T01:47:12.938Z,73089
2016-11-21T01:47:21.684Z,73094
2016-11-21T01:47:30.363Z,73095
2016-11-21T01:47:39.077Z,73084
2016-11-21T01:47:47.784Z,73085
2016-11-21T01:47:56.547Z,73084
2016-11-21T01:48:05.267Z,73088
2016-11-21T01:48:13.980Z,73087
2016-11-21T01:48:22.705Z,73091
2016-11-21T01:48:31.461Z,73081
2016-11-21T01:48:40.175Z,73075
2016-11-21T01:48:48.864Z,73066
2016-11-21T01:48:57.585Z,73052
2016-11-21T01:49:06.287Z,73042
2016-11-21T01:49:14.970Z,73042
2016-11-21T01:49:23.664Z,73042
2016-11-21T01:49:32.374Z,73040
2016-11-21T01:49:41.364Z,73046
2016-11-21T01:49:50.084Z,73069
2016-11-21T01:49:58.778Z,73067
2016-11-21T01:50:07.499Z,73067
2016-11-21T01:50:16.207Z,73048
2016-11-21T01:50:24.910Z,73046
2016-11-21T01:50:33.624Z,73039
2016-11-21T01:50:42.378Z,73047
2016-11-21T01:50:51.122Z,73049
2016-11-21T01:50:59.834Z,73047
2016-11-21T01:51:08.523Z,73043
2016-11-21T01:51:17.256Z,73055
2016-11-21T01:51:25.976Z,73069
2016-11-21T01:51:34.676Z,73073
2016-11-21T01:51:43.422Z,73066
2016-11-21T01:51:52.139Z,73077
2016-11-21T01:52:00.853Z,73080
2016-11-21T01:52:09.583Z,73092
2016-11-21T01:52:18.303Z,73089